Time;durP1;ratioP1;P1;durP2;ratioP2;P2;SDS_P1;SDS_P2;PMS_P1;PMS_P2;Temp;Humidity;BMP_temperature;BMP_pressure;BME280_temperature;BME280_humidity;BME280_pressure;Samples;Min_cycle;Max_cycle;Signal;HPM_P1;HPM_P2
2022/10/31 00:00:57;;;;;;;30.83;18.42;;;;;;;11.50;100.00;116398.19;5074452;28;20024;-61
2022/10/31 00:03:22;;;;;;;27.42;17.50;;;;;;;11.43;100.00;114986.00;5091524;28;20609;-62
2022/10/31 00:05:49;;;;;;;29.20;20.33;;;;;;;11.40;100.00;112881.66;5080244;28;20095;-62
2022/10/31 00:08:15;;;;;;;36.70;19.13;;;;;;;11.35;100.00;111123.59;5072998;28;20543;-62
2022/10/31 00:10:42;;;;;;;26.88;19.30;;;;;;;11.34;100.00;110422.81;5071499;28;20512;-62
2022/10/31 00:13:08;;;;;;;30.50;18.20;;;;;;;11.28;100.00;109364.81;5072827;28;20073;-62
2022/10/31 00:15:35;;;;;;;24.95;21.10;;;;;;;11.22;100.00;108306.38;5071791;28;20090;-62
2022/10/31 00:18:01;;;;;;;28.90;19.27;;;;;;;11.20;100.00;106557.28;5072862;28;20117;-61
2022/10/31 00:20:26;;;;;;;27.17;19.42;;;;;;;11.19;100.00;104461.91;5080597;28;20614;-61
2022/10/31 00:22:51;;;;;;;43.42;23.58;;;;;;;11.22;100.00;102723.00;5073001;28;20024;-61
2022/10/31 00:25:17;;;;;;;33.92;20.17;;;;;;;11.19;100.00;102718.81;5071053;28;20078;-61
2022/10/31 00:27:42;;;;;;;32.72;23.08;;;;;;;11.18;100.00;102367.66;5072759;28;20024;-61
2022/10/31 00:30:08;;;;;;;28.98;19.38;;;;;;;11.18;100.00;101671.19;5071057;28;20384;-60
2022/10/31 00:32:33;;;;;;;29.75;18.52;;;;;;;11.14;100.00;101315.19;5085675;28;20048;-61
2022/10/31 00:34:58;;;;;;;34.85;21.05;;;;;;;11.08;100.00;101654.69;5082577;28;20039;-61
2022/10/31 00:37:24;;;;;;;37.58;23.30;;;;;;;10.84;100.00;101964.25;5084982;28;20406;-61
2022/10/31 00:39:49;;;;;;;24.70;17.90;;;;;;;10.93;100.00;100933.81;5092608;28;20028;-61
2022/10/31 00:42:15;;;;;;;23.70;16.17;;;;;;;10.87;100.00;99531.53;5090959;28;20043;-61
2022/10/31 00:44:40;;;;;;;25.25;15.93;;;;;;;10.83;100.00;97783.50;5091249;28;20495;-61
2022/10/31 00:47:06;;;;;;;31.13;17.50;;;;;;;10.83;100.00;96391.44;5073443;28;20044;-61
2022/10/31 00:49:31;;;;;;;26.73;19.10;;;;;;;10.79;100.00;94647.38;5092433;28;20437;-61
2022/10/31 00:51:56;;;;;;;29.63;17.77;;;;;;;10.78;100.00;93254.94;5091101;28;20040;-61
2022/10/31 00:54:22;;;;;;;25.35;18.30;;;;;;;10.76;100.00;92209.06;5092146;28;20039;-61
2022/10/31 00:56:47;;;;;;;29.77;15.45;;;;;;;10.72;100.00;91160.63;5091214;28;20032;-61
2022/10/31 00:59:12;;;;;;;21.85;17.63;;;;;;;10.71;100.00;89769.59;5090178;28;20036;-61
2022/10/31 01:01:38;;;;;;;38.58;22.23;;;;;;;10.71;100.00;88379.81;5071905;28;20048;-62
2022/10/31 01:04:03;;;;;;;33.05;24.15;;;;;;;10.75;100.00;86650.47;5091785;28;20534;-62
2022/10/31 01:06:29;;;;;;;32.03;23.33;;;;;;;10.78;100.00;84919.56;5090608;28;20039;-61
2022/10/31 01:08:54;;;;;;;40.53;26.08;;;;;;;10.81;100.00;83534.69;5092277;28;20062;-61
2022/10/31 01:11:21;;;;;;;93.88;19.98;;;;;;;10.82;100.00;82842.41;5090189;28;20055;-61
2022/10/31 01:13:49;;;;;;;41.58;16.73;;;;;;;10.73;100.00;83872.06;5092043;28;20034;-61
2022/10/31 01:16:17;;;;;;;24.20;18.67;;;;;;;10.63;100.00;85246.56;5070151;28;20029;-62
2022/10/31 01:18:43;;;;;;;36.30;24.67;;;;;;;10.57;100.00;86972.25;5088133;28;20090;-62
2022/10/31 01:21:14;;;;;;;34.03;23.30;;;;;;;10.53;100.00;88007.72;5091806;28;20024;-62
2022/10/31 01:23:40;;;;;;;25.85;18.13;;;;;;;10.42;100.00;88340.50;5090744;28;20032;-63
2022/10/31 01:26:12;;;;;;;28.83;20.55;;;;;;;10.37;100.00;88680.38;5091280;28;20073;-63
2022/10/31 01:28:42;;;;;;;21.05;15.23;;;;;;;10.29;100.00;89015.88;5089654;28;20179;-63
2022/10/31 01:31:08;;;;;;;23.52;19.35;;;;;;;10.19;100.00;89348.44;5071319;28;20045;-62
2022/10/31 01:33:35;;;;;;;30.50;21.25;;;;;;;10.21;100.00;88657.38;5086946;28;20105;-62
2022/10/31 01:36:01;;;;;;;27.40;18.15;;;;;;;10.24;100.00;87620.91;5091663;28;20037;-61
2022/10/31 01:38:26;;;;;;;36.92;20.38;;;;;;;10.27;100.00;85891.75;5076913;28;20072;-61
2022/10/31 01:40:52;;;;;;;39.20;25.38;;;;;;;10.31;100.00;83469.94;5071179;28;20020;-61
2022/10/31 01:43:18;;;;;;;41.33;27.40;;;;;;;10.33;100.00;81393.72;5069537;28;20048;-62
2022/10/31 01:45:51;;;;;;;43.92;30.08;;;;;;;10.41;100.00;78979.91;5074829;28;20477;-62
2022/10/31 01:48:21;;;;;;;67.90;29.95;;;;;;;10.40;100.00;76901.81;5069253;28;20045;-62
2022/10/31 01:50:51;;;;;;;29.55;22.13;;;;;;;10.36;100.00;76204.88;5071306;28;20027;-62
2022/10/31 01:53:17;;;;;;;35.78;26.38;;;;;;;10.32;100.00;75162.28;5069304;28;20128;-62
2022/10/31 01:55:46;;;;;;;36.47;24.45;;;;;;;10.15;100.00;74797.19;5070922;28;20074;-62
2022/10/31 01:58:14;;;;;;;45.97;29.10;;;;;;;10.24;100.00;74461.06;5083489;28;20123;-62
2022/10/31 02:00:43;;;;;;;35.25;22.27;;;;;;;10.21;100.00;74112.34;5077565;28;20079;-62
2022/10/31 02:03:08;;;;;;;;;;;;;;;10.19;100.00;74109.38;5069450;28;20041;-62
2022/10/31 02:05:34;;;;;;;36.75;24.75;;;;;;;10.14;100.00;73758.97;5071068;28;19915;-62
2022/10/31 02:08:32;;;;;;;38.72;23.35;;;;;;;10.14;100.00;73413.34;5069154;28;20056;-60
2022/10/31 02:11:00;;;;;;;35.85;19.83;;;;;;;10.15;100.00;73414.53;5070862;28;20022;-60
2022/10/31 02:13:27;;;;;;;18.70;16.47;;;;;;;10.10;100.00;73408.59;5086569;28;20434;-60
2022/10/31 02:15:55;;;;;;;20.52;15.63;;;;;;;10.00;100.00;73396.81;5073236;28;20032;-60
2022/10/31 02:18:22;;;;;;;24.02;16.90;;;;;;;9.99;100.00;73395.66;5069553;28;20041;-60
2022/10/31 02:21:09;;;;;;;29.60;15.65;;;;;;;9.91;100.00;73731.69;5075440;28;20024;-60
2022/10/31 02:23:59;;;;;;;226.15;25.52;;;;;;;9.81;100.00;74066.47;5088584;28;20127;-60
2022/10/31 02:26:54;;;;;;;73.57;20.95;;;;;;;9.67;100.00;75086.13;5074016;28;20503;-60
2022/10/31 02:29:54;;;;;;;32.83;20.67;;;;;;;9.62;100.00;75771.66;5077207;28;20089;-62
2022/10/31 02:32:50;;;;;;;33.38;21.75;;;;;;;9.60;100.00;76114.13;5088771;28;20058;-62
2022/10/31 02:35:40;;;;;;;23.67;18.45;;;;;;;9.52;100.00;77142.16;5088922;28;20016;-62
2022/10/31 02:38:24;;;;;;;23.23;18.05;;;;;;;9.47;100.00;77827.13;5088371;28;20042;-62
2022/10/31 02:41:04;;;;;;;32.30;23.90;;;;;;;9.47;100.00;78172.75;5090815;28;20033;-62
2022/10/31 02:44:00;;;;;;;36.60;22.10;;;;;;;9.47;100.00;78172.75;5088739;28;20133;-62
2022/10/31 02:46:34;;;;;;;38.67;25.40;;;;;;;9.47;100.00;78172.75;5088920;28;20032;-62
2022/10/31 02:49:11;;;;;;;175.85;25.50;;;;;;;9.47;100.00;78172.75;5090589;28;20024;-62
2022/10/31 02:51:38;;;;;;;64.35;20.70;;;;;;;9.47;100.00;78172.75;5089403;28;20043;-62
2022/10/31 02:54:03;;;;;;;61.70;22.40;;;;;;;9.47;100.00;78172.75;5077934;28;20055;-62
2022/10/31 02:56:29;;;;;;;34.20;22.17;;;;;;;9.45;100.00;78170.22;5072660;28;20024;-61
2022/10/31 02:59:01;;;;;;;80.43;24.80;;;;;;;9.45;100.00;77824.59;5090873;28;20046;-62
2022/10/31 03:01:46;;;;;;;163.20;24.15;;;;;;;9.44;100.00;78168.97;5078511;28;20094;-63
2022/10/31 03:04:33;;;;;;;62.42;17.55;;;;;;;9.38;100.00;78507.00;5070479;28;20395;-63
2022/10/31 03:07:23;;;;;;;96.47;20.50;;;;;;;9.38;100.00;78852.66;5068632;28;20044;-62
2022/10/31 03:10:16;;;;;;;26.00;15.80;;;;;;;9.36;100.00;79196.41;5070117;28;20052;-63
2022/10/31 03:13:08;;;;;;;30.27;19.30;;;;;;;9.34;100.00;79539.50;5073343;28;20045;-62
2022/10/31 03:15:39;;;;;;;30.65;17.88;;;;;;;9.26;100.00;79529.25;5070002;28;20111;-62
2022/10/31 03:18:09;;;;;;;27.45;19.98;;;;;;;9.34;100.00;79539.50;5068856;28;20043;-62
2022/10/31 03:20:45;;;;;;;28.05;21.15;;;;;;;9.31;100.00;79189.38;5070535;28;20082;-62
2022/10/31 03:23:18;;;;;;;30.00;20.20;;;;;;;9.35;100.00;78849.47;5068572;28;20519;-62
2022/10/31 03:25:46;;;;;;;24.48;18.60;;;;;;;9.32;100.00;78845.66;5080410;28;20085;-62
2022/10/31 03:28:14;;;;;;;21.60;14.90;;;;;;;9.35;100.00;78503.19;5068509;28;20127;-62
2022/10/31 03:30:42;;;;;;;31.20;19.38;;;;;;;9.35;100.00;78158.25;5069902;28;20020;-63
2022/10/31 03:33:14;;;;;;;35.65;22.33;;;;;;;9.35;100.00;78158.25;5068147;28;20048;-62
2022/10/31 03:35:45;;;;;;;46.20;22.15;;;;;;;9.36;100.00;77813.31;5073851;28;20031;-62
2022/10/31 03:38:13;;;;;;;30.70;20.75;;;;;;;9.35;100.00;77812.06;5072174;28;20047;-62
2022/10/31 03:40:43;;;;;;;47.45;30.30;;;;;;;9.34;100.00;77810.81;5092997;28;20024;-62
2022/10/31 03:43:15;;;;;;;32.25;19.77;;;;;;;9.32;100.00;77808.31;5092314;28;20047;-61
2022/10/31 03:45:45;;;;;;;42.70;19.75;;;;;;;9.23;100.00;78488.00;5093596;28;20028;-62
2022/10/31 03:48:13;;;;;;;23.92;13.45;;;;;;;9.13;100.00;79167.63;5091937;28;20036;-62
2022/10/31 03:50:58;;;;;;;27.33;19.27;;;;;;;9.06;100.00;80195.34;5094096;28;20024;-62
2022/10/31 03:53:30;;;;;;;237.40;25.60;;;;;;;9.02;100.00;80881.38;5089238;28;20040;-62
2022/10/31 03:56:02;;;;;;;37.95;21.40;;;;;;;8.97;100.00;81566.09;5073387;28;20032;-61
2022/10/31 03:58:37;;;;;;;22.83;18.52;;;;;;;8.91;100.00;81904.47;5082524;28;20488;-61
2022/10/31 04:01:05;;;;;;;58.85;16.17;;;;;;;8.86;100.00;82589.19;5093471;28;20024;-61
2022/10/31 04:03:33;;;;;;;;;;;;;;;8.81;100.00;83274.53;5092237;28;20051;-60
2022/10/31 04:06:02;;;;;;;27.88;19.73;;;;;;;8.75;100.00;83957.88;5073127;28;20610;-61
2022/10/31 04:08:31;;;;;;;28.13;18.23;;;;;;;8.71;100.00;84298.19;5073092;28;20071;-61
2022/10/31 04:10:59;;;;;;;48.17;12.18;;;;;;;8.70;100.00;84296.81;5089378;28;20024;-61
2022/10/31 04:13:31;;;;;;;133.32;13.85;;;;;;;8.64;100.00;84980.13;5092037;28;20040;-61
2022/10/31 04:15:57;;;;;;;69.10;13.05;;;;;;;8.56;100.00;86007.81;5093180;28;20020;-61
2022/10/31 04:18:23;;;;;;;36.35;21.23;;;;;;;8.49;100.00;87380.69;5091265;28;20042;-61
2022/10/31 04:20:49;;;;;;;24.70;18.58;;;;;;;8.50;100.00;88073.94;5092752;28;20556;-61
2022/10/31 04:23:25;;;;;;;31.60;19.17;;;;;;;8.51;100.00;88076.09;5072243;28;20579;-61
2022/10/31 04:25:51;;;;;;;89.53;16.90;;;;;;;8.49;100.00;88072.53;5093313;28;20060;-62
2022/10/31 04:28:16;;;;;;;26.40;18.50;;;;;;;8.43;100.00;88410.59;5091348;28;20062;-62
2022/10/31 04:30:42;;;;;;;25.13;20.23;;;;;;;8.40;100.00;88752.22;5092357;28;20550;-60
2022/10/31 04:33:07;;;;;;;181.30;30.58;;;;;;;8.44;100.00;89104.00;5091159;28;20059;-62
2022/10/31 04:35:32;;;;;;;274.42;28.88;;;;;;;8.44;100.00;89449.28;5093261;28;20039;-62
2022/10/31 04:37:58;;;;;;;247.85;28.60;;;;;;;8.40;100.00;89790.25;5073121;28;20041;-62
2022/10/31 04:40:23;;;;;;;28.55;19.90;;;;;;;8.36;100.00;90477.25;5087251;28;20031;-62
2022/10/31 04:42:48;;;;;;;37.70;24.73;;;;;;;8.35;100.00;90475.78;5091465;28;20044;-63
2022/10/31 04:45:14;;;;;;;40.25;25.58;;;;;;;8.34;100.00;90473.59;5091684;28;20039;-62
2022/10/31 04:47:39;;;;;;;39.50;26.08;;;;;;;8.34;100.00;90473.59;5084963;28;20508;-63
2022/10/31 04:50:05;;;;;;;234.25;30.30;;;;;;;8.33;100.00;90818.97;5073988;28;20432;-62
2022/10/31 04:52:30;;;;;;;217.43;28.08;;;;;;;8.31;100.00;90816.00;5070735;28;20040;-62
2022/10/31 04:54:55;;;;;;;49.63;19.08;;;;;;;8.22;100.00;91840.97;5072431;28;20029;-63
2022/10/31 04:57:21;;;;;;;32.83;19.42;;;;;;;8.14;100.00;92522.03;5070752;28;20032;-62
2022/10/31 04:59:46;;;;;;;32.28;21.83;;;;;;;8.10;100.00;92862.13;5072046;28;20503;-62
2022/10/31 05:02:11;;;;;;;24.08;17.40;;;;;;;8.09;100.00;92860.63;5070549;28;20037;-62
2022/10/31 05:04:36;;;;;;;34.15;18.95;;;;;;;8.05;100.00;93200.72;5081676;28;20039;-62
2022/10/31 05:07:02;;;;;;;319.17;34.72;;;;;;;8.00;100.00;93540.03;5089619;28;20086;-62
2022/10/31 05:09:27;;;;;;;79.10;24.30;;;;;;;8.00;100.00;93885.47;5085780;28;20032;-61
2022/10/31 05:11:52;;;;;;;41.17;21.35;;;;;;;7.97;100.00;93880.88;5071140;28;20036;-64
2022/10/31 05:14:18;;;;;;;50.17;26.38;;;;;;;7.96;100.00;93879.34;5075348;28;20562;-63
2022/10/31 05:16:43;;;;;;;29.67;19.42;;;;;;;7.91;100.00;93527.13;5080030;28;20539;-62
2022/10/31 05:19:08;;;;;;;38.85;16.83;;;;;;;7.88;100.00;93522.56;5091986;28;20047;-62
2022/10/31 05:21:34;;;;;;;50.38;27.55;;;;;;;7.85;100.00;93518.00;5085972;28;20063;-62
2022/10/31 05:23:59;;;;;;;52.67;25.35;;;;;;;7.84;100.00;93516.50;5084355;28;20036;-62
2022/10/31 05:26:25;;;;;;;37.72;25.35;;;;;;;7.82;100.00;93167.41;5070557;28;20027;-62
2022/10/31 05:28:50;;;;;;;27.20;18.85;;;;;;;7.80;100.00;93164.38;5072443;28;20016;-62
2022/10/31 05:31:15;;;;;;;41.65;23.95;;;;;;;7.91;100.00;91796.97;5069767;28;20044;-62
2022/10/31 05:33:41;;;;;;;43.72;27.25;;;;;;;7.89;100.00;90756.28;5071589;28;20029;-62
2022/10/31 05:36:06;;;;;;;37.33;23.77;;;;;;;7.89;100.00;89718.88;5071072;28;20062;-61
2022/10/31 05:38:32;;;;;;;56.97;31.25;;;;;;;7.84;100.00;89020.19;5076601;28;20043;-61
2022/10/31 05:40:57;;;;;;;49.08;27.38;;;;;;;7.82;100.00;88671.63;5081469;28;20068;-62
2022/10/31 05:43:23;;;;;;;31.10;20.65;;;;;;;7.72;100.00;88311.66;5068968;28;20041;-61
2022/10/31 05:45:53;;;;;;;35.00;20.13;;;;;;;7.77;100.00;88318.84;5089898;28;20035;-61
2022/10/31 05:48:18;;;;;;;64.00;21.10;;;;;;;7.68;100.00;88652.19;5072142;28;20124;-61
2022/10/31 05:50:43;;;;;;;171.63;26.92;;;;;;;7.65;100.00;88992.72;5070788;28;20472;-61
2022/10/31 05:53:09;;;;;;;105.88;23.67;;;;;;;7.67;100.00;88650.03;5069490;28;20451;-61
2022/10/31 05:55:34;;;;;;;145.15;22.60;;;;;;;7.71;100.00;88310.22;5071272;28;20032;-61
2022/10/31 05:58:00;;;;;;;56.65;17.80;;;;;;;7.72;100.00;87966.13;5068350;28;20443;-61
2022/10/31 06:00:26;;;;;;;51.38;17.02;;;;;;;7.66;100.00;87957.56;5071024;28;20365;-60
2022/10/31 06:02:59;;;;;;;24.30;16.73;;;;;;;7.69;100.00;87961.88;5069749;28;20037;-60
2022/10/31 06:05:24;;;;;;;28.90;23.35;;;;;;;7.70;100.00;87273.03;5071123;28;20115;-60
2022/10/31 06:07:50;;;;;;;26.60;18.10;;;;;;;7.73;100.00;86931.13;5069591;28;20056;-59
2022/10/31 06:10:15;;;;;;;20.15;16.20;;;;;;;7.71;100.00;86582.91;5070801;28;20031;-60
2022/10/31 06:12:41;;;;;;;29.60;18.55;;;;;;;7.67;100.00;86577.97;5069175;28;20051;-60
2022/10/31 06:15:08;;;;;;;27.45;16.95;;;;;;;7.67;100.00;86577.97;5070528;28;20048;-60
2022/10/31 06:17:34;;;;;;;30.67;20.08;;;;;;;7.70;100.00;86236.13;5069460;28;20037;-60
2022/10/31 06:19:59;;;;;;;34.22;22.58;;;;;;;7.76;100.00;85553.78;5070316;28;20032;-60
2022/10/31 06:22:25;;;;;;;31.30;22.25;;;;;;;7.78;100.00;85211.25;5069366;28;20106;-59
2022/10/31 06:24:50;;;;;;;36.85;24.92;;;;;;;7.79;100.00;85212.59;5071036;28;20024;-60
2022/10/31 06:27:15;;;;;;;38.92;27.02;;;;;;;7.78;100.00;84865.94;5069072;28;20040;-60
2022/10/31 06:29:41;;;;;;;51.70;33.50;;;;;;;7.86;100.00;84185.63;5070385;28;20031;-59
2022/10/31 06:32:10;;;;;;;44.88;28.55;;;;;;;7.92;100.00;83849.22;5069191;28;20055;-59
2022/10/31 06:34:35;;;;;;;46.38;29.98;;;;;;;7.94;100.00;83506.66;5070755;28;20494;-59
2022/10/31 06:37:01;;;;;;;45.78;26.85;;;;;;;7.96;100.00;83162.75;5068984;28;20028;-59
2022/10/31 06:39:26;;;;;;;50.42;31.35;;;;;;;7.96;100.00;83162.75;5070810;28;20415;-59
2022/10/31 06:41:51;;;;;;;55.88;32.70;;;;;;;7.97;100.00;83164.09;5069157;28;20059;-59
2022/10/31 06:44:17;;;;;;;51.97;29.67;;;;;;;8.01;100.00;82824.22;5070081;28;20310;-59
2022/10/31 06:46:42;;;;;;;65.70;34.90;;;;;;;8.05;100.00;82829.59;5069406;28;20067;-59
2022/10/31 06:49:08;;;;;;;50.25;31.75;;;;;;;8.08;100.00;82488.34;5070487;28;20027;-59
2022/10/31 06:51:33;;;;;;;41.53;25.40;;;;;;;8.10;100.00;82491.69;5068765;28;20052;-59
2022/10/31 06:53:59;;;;;;;33.25;20.27;;;;;;;8.08;100.00;82834.28;5070172;28;20020;-60
2022/10/31 06:56:24;;;;;;;233.18;34.28;;;;;;;8.04;100.00;83173.53;5068585;28;20047;-59
2022/10/31 06:58:49;;;;;;;68.15;31.08;;;;;;;8.03;100.00;83517.47;5068961;28;20555;-59
2022/10/31 07:01:15;;;;;;;67.45;36.03;;;;;;;8.07;100.00;83177.56;5068664;28;20021;-59
2022/10/31 07:03:40;;;;;;;43.90;28.90;;;;;;;8.10;100.00;83181.59;5070508;28;20039;-60
2022/10/31 07:06:05;;;;;;;60.70;33.47;;;;;;;8.14;100.00;82841.66;5070009;28;20033;-59
2022/10/31 07:08:31;;;;;;;54.42;31.00;;;;;;;8.17;100.00;85263.69;5069418;28;20497;-59
2022/10/31 07:10:56;;;;;;;45.03;29.50;;;;;;;8.18;100.00;85610.66;5084503;28;20020;-59
2022/10/31 07:13:25;;;;;;;48.33;31.05;;;;;;;8.23;100.00;83889.94;5092347;28;20036;-59
2022/10/31 07:15:52;;;;;;;65.25;37.85;;;;;;;8.34;100.00;82521.72;5078309;28;20621;-59
2022/10/31 07:18:17;;;;;;;53.47;33.53;;;;;;;8.38;100.00;81836.94;5092520;28;20122;-60
2022/10/31 07:20:43;;;;;;;41.75;30.40;;;;;;;8.46;100.00;80810.16;5094311;28;20024;-59
2022/10/31 07:23:11;;;;;;;55.88;37.25;;;;;;;8.49;100.00;80468.78;5092594;28;20044;-60
2022/10/31 07:25:38;;;;;;;43.70;28.95;;;;;;;8.52;100.00;80128.03;5094351;28;20606;-59
2022/10/31 07:28:04;;;;;;;43.67;27.70;;;;;;;8.54;100.00;79784.69;5087932;28;20120;-59
2022/10/31 07:30:29;;;;;;;45.10;28.90;;;;;;;8.55;100.00;79096.13;5073944;28;20126;-60
2022/10/31 07:32:55;;;;;;;45.20;26.40;;;;;;;8.60;100.00;78756.00;5072436;28;20408;-59
2022/10/31 07:35:23;;;;;;;38.05;26.83;;;;;;;8.60;100.00;78410.81;5073622;28;20085;-59
2022/10/31 07:37:49;;;;;;;50.17;31.10;;;;;;;8.63;100.00;78069.41;5072269;28;20755;-59
2022/10/31 07:40:15;;;;;;;48.08;28.38;;;;;;;8.69;100.00;77732.41;5073546;28;20032;-59
2022/10/31 07:42:43;;;;;;;44.47;27.55;;;;;;;8.75;100.00;77393.50;5071954;28;20049;-59
2022/10/31 07:45:11;;;;;;;52.63;21.52;;;;;;;8.82;100.00;76712.50;5073594;28;20025;-59
2022/10/31 07:47:46;;;;;;;42.85;28.65;;;;;;;8.93;100.00;76034.47;5072073;28;20412;-59
2022/10/31 07:50:13;;;;;;;51.85;33.90;;;;;;;9.04;100.00;75357.56;5073364;28;20082;-59
2022/10/31 07:52:39;;;;;;;45.67;26.33;;;;;;;9.20;100.00;74686.53;5072119;28;20496;-60
2022/10/31 07:55:05;;;;;;;42.22;30.02;;;;;;;9.32;100.00;74009.31;5073665;28;20028;-59
2022/10/31 07:57:31;;;;;;;51.17;31.42;;;;;;;9.44;100.00;73332.53;5071631;28;20408;-59
2022/10/31 07:59:56;;;;;;;52.78;34.38;;;;;;;9.62;100.00;72662.63;5073116;28;20027;-59
2022/10/31 08:02:22;;;;;;;56.55;33.72;;;;;;;9.81;100.00;71648.28;5071782;28;20044;-59
2022/10/31 08:04:48;;;;;;;50.88;33.15;;;;;;;10.00;100.00;70288.34;5073128;28;20028;-60
2022/10/31 08:07:13;;;;;;;60.50;36.35;;;;;;;10.20;100.00;69273.81;5071416;28;20127;-60
2022/10/31 08:09:38;;;;;;;53.28;35.65;;;;;;;10.43;100.00;67917.44;5086209;28;20030;-60
2022/10/31 08:12:04;;;;;;;66.47;37.83;;;;;;;10.68;100.00;66562.66;5090255;28;20101;-59
2022/10/31 08:14:29;;;;;;;60.75;40.10;;;;;;;10.89;100.00;65202.50;5092861;28;20024;-60
2022/10/31 08:16:54;;;;;;;62.10;40.65;;;;;;;11.10;100.00;63842.94;5092059;28;20089;-60
2022/10/31 08:19:20;;;;;;;52.70;37.05;;;;;;;11.47;100.00;62496.84;5092508;28;20027;-60
2022/10/31 08:21:45;;;;;;;48.70;32.15;;;;;;;11.77;100.00;60798.84;5090852;28;20040;-60
2022/10/31 08:24:11;;;;;;;48.05;32.22;;;;;;;12.10;100.00;59447.72;5093024;28;20028;-60
2022/10/31 08:26:36;;;;;;;41.03;27.63;;;;;;;12.25;100.00;58770.38;5091361;28;20529;-61
2022/10/31 08:29:02;;;;;;;37.63;29.27;;;;;;;12.44;100.00;58442.06;5092897;28;20027;-60
2022/10/31 08:31:28;;;;;;;37.03;27.58;;;;;;;12.49;100.00;59483.66;5091614;28;20059;-60
2022/10/31 08:33:53;;;;;;;33.63;26.80;;;;;;;12.57;100.00;60873.88;5092869;28;20020;-60
2022/10/31 08:36:20;;;;;;;36.42;26.15;;;;;;;12.73;100.00;62618.47;5091640;28;20031;-60
2022/10/31 08:38:46;;;;;;;35.47;25.48;;;;;;;12.78;100.00;65739.72;5092128;28;20035;-60
2022/10/31 08:41:12;;;;;;;32.03;24.15;;;;;;;12.82;100.00;69903.00;5091045;28;20028;-60
2022/10/31 08:43:37;;;;;;;32.60;22.27;;;;;;;12.87;100.00;74766.13;5089741;28;20035;-60
2022/10/31 08:46:03;;;;;;;26.15;22.90;;;;;;;12.81;100.00;81709.28;5092479;28;20020;-60
2022/10/31 08:48:29;;;;;;;32.53;22.02;;;;;;;12.86;100.00;88678.25;5090614;28;20036;-60
2022/10/31 08:50:57;;;;;;;37.65;23.05;;;;;;;12.93;100.00;94267.50;5093150;28;20034;-60
2022/10/31 08:53:23;;;;;;;33.13;22.05;;;;;;;13.04;100.00;98472.94;5090807;28;20670;-60
2022/10/31 08:55:48;;;;;;;23.25;20.77;;;;;;;13.13;100.00;102683.31;5092328;28;20027;-60
2022/10/31 08:58:17;;;;;;;26.35;18.55;;;;;;;13.18;100.00;108992.22;5090536;28;20344;-61
2022/10/31 09:00:43;;;;;;;25.63;19.80;;;;;;;13.25;100.00;118476.19;5091951;28;20028;-60
2022/10/31 09:03:14;;;;;;;38.88;21.10;;;;;;;13.49;100.00;120981.78;5090298;28;20032;-61
2022/10/31 09:05:40;;;;;;;24.10;19.88;;;;;;;13.58;100.00;126980.25;5092427;28;20032;-61
2022/10/31 09:08:06;;;;;;;23.77;17.40;;;;;;;13.77;100.00;137597.97;5090569;28;20044;-60
2022/10/31 09:10:33;;;;;;;25.33;18.48;;;;;;;13.94;100.00;150018.00;5091723;28;20443;-61
2022/10/31 09:13:01;;;;;;;22.25;18.38;;;;;;;14.08;100.00;164246.25;5090284;28;20561;-61
2022/10/31 09:15:28;;;;;;;27.77;16.20;;;;;;;14.27;100.00;164297.63;5091965;28;20034;-60
2022/10/31 09:17:54;;;;;;;23.08;17.50;;;;;;;14.45;100.00;164343.66;5089951;28;20032;-61
2022/10/31 09:20:20;;;;;;;20.48;16.30;;;;;;;14.61;100.00;164385.56;5091827;28;20373;-61
2022/10/31 09:22:45;;;;;;;26.80;18.13;;;;;;;14.85;100.00;164447.88;5090193;28;20532;-61
2022/10/31 09:25:11;;;;;;;28.33;15.32;;;;;;;15.31;100.00;164569.69;5091253;28;20030;-61
2022/10/31 09:27:36;;;;;;;30.65;16.95;;;;;;;15.74;100.00;164680.69;5090706;28;20062;-61
2022/10/31 09:30:03;;;;;;;23.13;16.58;;;;;;;16.42;100.00;164860.84;5091777;28;20058;-61
2022/10/31 09:32:28;;;;;;;20.88;13.68;;;;;;;16.80;100.00;164961.09;5089848;28;20570;-61
2022/10/31 09:34:54;;;;;;;15.90;12.35;;;;;;;17.26;100.00;165080.38;5091929;28;20020;-61
2022/10/31 09:37:19;;;;;;;18.08;13.38;;;;;;;17.46;100.00;165131.91;5090234;28;20511;-61
2022/10/31 09:39:44;;;;;;;16.63;12.32;;;;;;;17.86;100.00;165237.59;5091596;28;20380;-61
2022/10/31 09:42:34;;;;;;;17.25;12.18;;;;;;;-146.58;100.00;69501.63;5090030;28;20052;-61
2022/10/31 09:45:23;;;;;;;16.95;11.50;;;;;;;17.96;100.00;165264.78;5091603;28;20093;-61
2022/10/31 09:47:57;;;;;;;16.98;9.82;;;;;;;-146.58;100.00;69501.63;5089918;28;20035;-61
2022/10/31 09:50:48;;;;;;;17.50;8.77;;;;;;;-146.58;100.00;69501.63;5091490;28;20042;-61
2022/10/31 09:53:25;;;;;;;15.75;9.70;;;;;;;-146.58;100.00;69501.63;5081537;28;20055;-61
2022/10/31 09:55:51;;;;;;;15.35;10.73;;;;;;;-146.58;100.00;69501.63;5091217;28;20035;-61
2022/10/31 09:58:22;;;;;;;15.23;10.57;;;;;;;-146.58;100.00;69501.63;5089874;28;20043;-61
2022/10/31 10:00:48;;;;;;;11.90;7.90;;;;;;;-146.58;100.00;69501.63;5091507;28;20059;-61
2022/10/31 10:03:28;;;;;;;10.20;8.57;;;;;;;-146.58;100.00;69501.63;5089549;28;20183;-61
2022/10/31 10:06:11;;;;;;;17.13;9.57;;;;;;;-146.58;100.00;69501.63;5091424;28;20056;-61
2022/10/31 10:08:37;;;;;;;20.38;11.07;;;;;;;-146.58;100.00;69501.63;5089774;28;20451;-61
2022/10/31 10:11:02;;;;;;;15.32;9.32;;;;;;;-146.58;100.00;69501.63;5090813;28;20020;-61
2022/10/31 10:13:27;;;;;;;9.40;8.10;;;;;;;-146.58;100.00;69501.63;5089960;28;20530;-61
2022/10/31 10:16:25;;;;;;;17.23;9.15;;;;;;;-146.58;100.00;69501.63;5087887;28;20111;-61
2022/10/31 10:19:05;;;;;;;15.13;10.63;;;;;;;-146.58;100.00;69501.63;5069178;28;20052;-61
2022/10/31 10:21:33;;;;;;;14.50;10.35;;;;;;;-146.58;100.00;69501.63;5083078;28;20097;-61
2022/10/31 10:24:12;;;;;;;23.60;13.23;;;;;;;16.90;100.00;164985.50;5091208;28;20036;-61
2022/10/31 10:26:43;;;;;;;13.68;11.23;;;;;;;16.98;100.00;165007.22;5089390;28;20047;-61
2022/10/31 10:29:32;;;;;;;16.13;11.95;;;;;;;17.06;100.00;165028.91;5091050;28;20085;-61
2022/10/31 10:32:05;;;;;;;29.17;13.25;;;;;;;17.22;100.00;165069.56;5089415;28;20047;-61
2022/10/31 10:34:41;;;;;;;17.67;10.90;;;;;;;17.36;100.00;165107.50;5091077;28;20023;-61
2022/10/31 10:37:30;;;;;;;20.33;12.57;;;;;;;17.46;100.00;165131.91;5089234;28;20500;-62
2022/10/31 10:40:05;;;;;;;14.77;12.85;;;;;;;17.36;100.00;165106.13;5090905;28;20031;-62
2022/10/31 10:48:15;;;;;;;13.23;8.65;;;;;;;-146.58;100.00;69501.63;5088642;28;20191;-61
2022/10/31 10:50:47;;;;;;;17.40;9.55;;;;;;;-146.58;100.00;69501.63;5090870;28;20035;-61
2022/10/31 10:53:32;;;;;;;12.65;7.90;;;;;;;16.98;100.00;165007.22;5089265;28;20040;-61
2022/10/31 10:56:11;;;;;;;16.50;10.23;;;;;;;16.96;100.00;165001.78;5090846;28;20024;-61
2022/10/31 10:58:38;;;;;;;19.52;10.75;;;;;;;17.03;100.00;165020.75;5088912;28;20192;-61
2022/10/31 11:01:14;;;;;;;14.27;10.17;;;;;;;16.93;100.00;164995.03;5090734;28;20024;-61
2022/10/31 11:03:41;;;;;;;15.38;11.45;;;;;;;16.83;100.00;164966.53;5089319;28;20486;-61
2022/10/31 11:06:22;;;;;;;14.48;9.75;;;;;;;16.81;100.00;164963.81;5090377;28;20496;-61
2022/10/31 11:08:48;;;;;;;12.68;9.75;;;;;;;16.71;100.00;164936.75;5088850;28;20123;-61
2022/10/31 11:11:16;;;;;;;12.98;10.43;;;;;;;16.70;100.00;164934.03;5088894;28;20017;-61
2022/10/31 11:13:43;;;;;;;15.65;10.05;;;;;;;16.62;100.00;164912.34;5087819;28;20070;-61
2022/10/31 11:16:30;;;;;;;24.27;11.80;;;;;;;16.62;100.00;164912.34;5074881;28;20104;-61
2022/10/31 11:19:08;;;;;;;18.30;9.98;;;;;;;-146.58;100.00;69501.63;5068801;28;20051;-61
2022/10/31 11:21:34;;;;;;;17.55;9.45;;;;;;;-146.58;100.00;69501.63;5080811;28;20055;-61
2022/10/31 11:24:08;;;;;;;14.25;10.02;;;;;;;-146.58;100.00;69501.63;5070233;28;20036;-61
2022/10/31 11:26:35;;;;;;;13.00;10.32;;;;;;;-146.58;100.00;69501.63;5085910;28;20665;-61